sensor_id;sensor_type;location;lat;lon;timestamp;P1;durP1;ratioP1;P2;durP2;ratioP2
45476;SDS011;31958;51.756;-2.556;2024-03-02T00:01:09;2.88;;;1.50;;
45476;SDS011;31958;51.756;-2.556;2024-03-02T00:03:36;6.43;;;1.00;;
45476;SDS011;31958;51.756;-2.556;2024-03-02T00:06:02;2.83;;;0.93;;
45476;SDS011;31958;51.756;-2.556;2024-03-02T00:08:27;15.23;;;1.17;;
45476;SDS011;31958;51.756;-2.556;2024-03-02T00:11:02;1.67;;;0.75;;
45476;SDS011;31958;51.756;-2.556;2024-03-02T00:13:27;4.00;;;0.98;;
45476;SDS011;31958;51.756;-2.556;2024-03-02T00:15:55;5.13;;;0.85;;
45476;SDS011;31958;51.756;-2.556;2024-03-02T00:18:32;2.90;;;1.00;;
45476;SDS011;31958;51.756;-2.556;2024-03-02T00:20:58;3.63;;;1.27;;
45476;SDS011;31958;51.756;-2.556;2024-03-02T00:23:29;8.18;;;1.33;;
45476;SDS011;31958;51.756;-2.556;2024-03-02T00:25:56;10.77;;;1.25;;
45476;SDS011;31958;51.756;-2.556;2024-03-02T00:28:29;4.53;;;1.40;;
45476;SDS011;31958;51.756;-2.556;2024-03-02T00:31:03;2.05;;;1.17;;
45476;SDS011;31958;51.756;-2.556;2024-03-02T00:33:31;6.53;;;1.02;;
45476;SDS011;31958;51.756;-2.556;2024-03-02T00:35:58;2.40;;;1.00;;
45476;SDS011;31958;51.756;-2.556;2024-03-02T00:38:24;6.90;;;1.02;;
45476;SDS011;31958;51.756;-2.556;2024-03-02T00:40:50;1.67;;;0.68;;
45476;SDS011;31958;51.756;-2.556;2024-03-02T00:43:35;3.92;;;0.63;;
45476;SDS011;31958;51.756;-2.556;2024-03-02T00:46:04;2.88;;;0.90;;
45476;SDS011;31958;51.756;-2.556;2024-03-02T00:48:29;2.80;;;0.98;;
45476;SDS011;31958;51.756;-2.556;2024-03-02T00:50:56;1.60;;;0.93;;
45476;SDS011;31958;51.756;-2.556;2024-03-02T00:53:23;0.93;;;0.60;;
45476;SDS011;31958;51.756;-2.556;2024-03-02T00:55:49;1.77;;;0.82;;
45476;SDS011;31958;51.756;-2.556;2024-03-02T00:58:15;1.58;;;0.77;;
45476;SDS011;31958;51.756;-2.556;2024-03-02T01:00:40;1.02;;;0.60;;
45476;SDS011;31958;51.756;-2.556;2024-03-02T01:03:06;1.83;;;0.88;;
45476;SDS011;31958;51.756;-2.556;2024-03-02T01:05:32;3.17;;;0.90;;
45476;SDS011;31958;51.756;-2.556;2024-03-02T01:07:58;1.95;;;0.80;;
45476;SDS011;31958;51.756;-2.556;2024-03-02T01:10:23;1.77;;;0.52;;
45476;SDS011;31958;51.756;-2.556;2024-03-02T01:12:50;1.30;;;0.75;;
45476;SDS011;31958;51.756;-2.556;2024-03-02T01:15:16;2.10;;;1.25;;
45476;SDS011;31958;51.756;-2.556;2024-03-02T01:17:41;1.70;;;0.90;;
45476;SDS011;31958;51.756;-2.556;2024-03-02T01:20:07;4.95;;;0.88;;
45476;SDS011;31958;51.756;-2.556;2024-03-02T01:22:34;2.30;;;0.90;;
45476;SDS011;31958;51.756;-2.556;2024-03-02T01:25:00;1.85;;;0.75;;
45476;SDS011;31958;51.756;-2.556;2024-03-02T01:27:26;2.58;;;1.00;;
45476;SDS011;31958;51.756;-2.556;2024-03-02T01:29:52;4.47;;;1.33;;
45476;SDS011;31958;51.756;-2.556;2024-03-02T01:32:17;2.78;;;1.20;;
45476;SDS011;31958;51.756;-2.556;2024-03-02T01:34:43;1.27;;;0.70;;
45476;SDS011;31958;51.756;-2.556;2024-03-02T01:37:08;2.63;;;0.80;;
45476;SDS011;31958;51.756;-2.556;2024-03-02T01:39:35;5.22;;;0.82;;
45476;SDS011;31958;51.756;-2.556;2024-03-02T01:42:00;2.20;;;1.05;;
45476;SDS011;31958;51.756;-2.556;2024-03-02T01:44:25;2.17;;;1.20;;
45476;SDS011;31958;51.756;-2.556;2024-03-02T01:46:51;3.28;;;1.00;;
45476;SDS011;31958;51.756;-2.556;2024-03-02T01:49:16;3.28;;;1.30;;
45476;SDS011;31958;51.756;-2.556;2024-03-02T01:51:41;4.68;;;1.08;;
45476;SDS011;31958;51.756;-2.556;2024-03-02T01:54:07;2.58;;;1.40;;
45476;SDS011;31958;51.756;-2.556;2024-03-02T01:56:32;1.70;;;0.80;;
45476;SDS011;31958;51.756;-2.556;2024-03-02T01:58:58;1.13;;;0.73;;
45476;SDS011;31958;51.756;-2.556;2024-03-02T02:01:23;4.32;;;0.90;;
45476;SDS011;31958;51.756;-2.556;2024-03-02T02:03:49;0.47;;;0.35;;
45476;SDS011;31958;51.756;-2.556;2024-03-02T02:06:14;1.30;;;0.77;;
45476;SDS011;31958;51.756;-2.556;2024-03-02T02:08:39;2.20;;;0.85;;
45476;SDS011;31958;51.756;-2.556;2024-03-02T02:11:05;1.27;;;0.80;;
45476;SDS011;31958;51.756;-2.556;2024-03-02T02:13:30;2.25;;;0.90;;
45476;SDS011;31958;51.756;-2.556;2024-03-02T02:15:55;7.10;;;0.93;;
45476;SDS011;31958;51.756;-2.556;2024-03-02T02:18:29;0.88;;;0.60;;
45476;SDS011;31958;51.756;-2.556;2024-03-02T02:20:54;3.67;;;0.85;;
45476;SDS011;31958;51.756;-2.556;2024-03-02T02:23:20;2.58;;;0.73;;
45476;SDS011;31958;51.756;-2.556;2024-03-02T02:25:45;1.00;;;0.60;;
45476;SDS011;31958;51.756;-2.556;2024-03-02T02:28:10;1.65;;;0.80;;
45476;SDS011;31958;51.756;-2.556;2024-03-02T02:30:36;3.95;;;1.10;;
45476;SDS011;31958;51.756;-2.556;2024-03-02T02:33:01;9.25;;;0.82;;
45476;SDS011;31958;51.756;-2.556;2024-03-02T02:35:26;2.65;;;1.15;;
45476;SDS011;31958;51.756;-2.556;2024-03-02T02:37:52;1.10;;;0.70;;
45476;SDS011;31958;51.756;-2.556;2024-03-02T02:40:19;1.33;;;0.80;;
45476;SDS011;31958;51.756;-2.556;2024-03-02T02:42:44;1.17;;;0.70;;
45476;SDS011;31958;51.756;-2.556;2024-03-02T02:45:10;1.35;;;0.70;;
45476;SDS011;31958;51.756;-2.556;2024-03-02T02:47:37;1.42;;;0.70;;
45476;SDS011;31958;51.756;-2.556;2024-03-02T02:50:03;1.73;;;0.90;;
45476;SDS011;31958;51.756;-2.556;2024-03-02T02:52:32;2.25;;;0.95;;
45476;SDS011;31958;51.756;-2.556;2024-03-02T02:55:04;3.75;;;1.00;;
45476;SDS011;31958;51.756;-2.556;2024-03-02T02:57:31;1.60;;;0.98;;
45476;SDS011;31958;51.756;-2.556;2024-03-02T03:00:01;2.13;;;1.05;;
45476;SDS011;31958;51.756;-2.556;2024-03-02T03:02:40;3.45;;;1.50;;
45476;SDS011;31958;51.756;-2.556;2024-03-02T03:05:06;2.55;;;1.40;;
45476;SDS011;31958;51.756;-2.556;2024-03-02T03:07:33;1.65;;;1.00;;
45476;SDS011;31958;51.756;-2.556;2024-03-02T03:09:59;1.77;;;1.20;;
45476;SDS011;31958;51.756;-2.556;2024-03-02T03:12:25;6.72;;;1.15;;
45476;SDS011;31958;51.756;-2.556;2024-03-02T03:14:50;2.17;;;1.00;;
45476;SDS011;31958;51.756;-2.556;2024-03-02T03:17:16;2.00;;;1.05;;
45476;SDS011;31958;51.756;-2.556;2024-03-02T03:19:42;1.92;;;1.02;;
45476;SDS011;31958;51.756;-2.556;2024-03-02T03:22:07;2.92;;;1.40;;
45476;SDS011;31958;51.756;-2.556;2024-03-02T03:24:33;4.25;;;1.30;;
45476;SDS011;31958;51.756;-2.556;2024-03-02T03:26:58;2.00;;;1.02;;
45476;SDS011;31958;51.756;-2.556;2024-03-02T03:29:23;2.38;;;1.10;;
45476;SDS011;31958;51.756;-2.556;2024-03-02T03:31:49;3.13;;;1.10;;
45476;SDS011;31958;51.756;-2.556;2024-03-02T03:34:14;4.13;;;1.48;;
45476;SDS011;31958;51.756;-2.556;2024-03-02T03:36:41;3.30;;;1.45;;
45476;SDS011;31958;51.756;-2.556;2024-03-02T03:39:06;7.93;;;1.40;;
45476;SDS011;31958;51.756;-2.556;2024-03-02T03:41:31;3.28;;;1.38;;
45476;SDS011;31958;51.756;-2.556;2024-03-02T03:43:57;3.90;;;1.25;;
45476;SDS011;31958;51.756;-2.556;2024-03-02T03:46:22;2.55;;;1.50;;
45476;SDS011;31958;51.756;-2.556;2024-03-02T03:48:47;2.13;;;1.10;;
45476;SDS011;31958;51.756;-2.556;2024-03-02T03:51:13;6.50;;;1.58;;
45476;SDS011;31958;51.756;-2.556;2024-03-02T03:53:38;1.98;;;1.08;;
45476;SDS011;31958;51.756;-2.556;2024-03-02T03:56:04;2.60;;;1.17;;
45476;SDS011;31958;51.756;-2.556;2024-03-02T03:58:30;6.35;;;1.25;;
45476;SDS011;31958;51.756;-2.556;2024-03-02T04:00:55;2.33;;;1.02;;
45476;SDS011;31958;51.756;-2.556;2024-03-02T04:03:21;2.83;;;1.20;;
45476;SDS011;31958;51.756;-2.556;2024-03-02T04:05:46;1.60;;;0.95;;
45476;SDS011;31958;51.756;-2.556;2024-03-02T04:08:11;1.88;;;1.10;;
45476;SDS011;31958;51.756;-2.556;2024-03-02T04:10:37;1.98;;;1.08;;
45476;SDS011;31958;51.756;-2.556;2024-03-02T04:13:02;1.50;;;0.90;;
45476;SDS011;31958;51.756;-2.556;2024-03-02T04:15:27;1.23;;;0.70;;
45476;SDS011;31958;51.756;-2.556;2024-03-02T04:17:53;2.35;;;1.08;;
45476;SDS011;31958;51.756;-2.556;2024-03-02T04:20:18;1.77;;;0.90;;
45476;SDS011;31958;51.756;-2.556;2024-03-02T04:22:43;3.78;;;1.05;;
45476;SDS011;31958;51.756;-2.556;2024-03-02T04:25:09;1.67;;;0.85;;
45476;SDS011;31958;51.756;-2.556;2024-03-02T04:27:34;3.45;;;1.00;;
45476;SDS011;31958;51.756;-2.556;2024-03-02T04:30:00;1.45;;;0.82;;
45476;SDS011;31958;51.756;-2.556;2024-03-02T04:32:28;3.47;;;1.40;;
45476;SDS011;31958;51.756;-2.556;2024-03-02T04:34:53;1.85;;;1.10;;
45476;SDS011;31958;51.756;-2.556;2024-03-02T04:37:19;2.25;;;1.20;;
45476;SDS011;31958;51.756;-2.556;2024-03-02T04:39:44;5.13;;;1.60;;
45476;SDS011;31958;51.756;-2.556;2024-03-02T04:42:10;6.60;;;1.25;;
45476;SDS011;31958;51.756;-2.556;2024-03-02T04:44:35;1.90;;;1.00;;
45476;SDS011;31958;51.756;-2.556;2024-03-02T04:47:01;1.88;;;0.85;;
45476;SDS011;31958;51.756;-2.556;2024-03-02T04:49:27;5.25;;;1.50;;
45476;SDS011;31958;51.756;-2.556;2024-03-02T04:51:52;3.05;;;1.77;;
45476;SDS011;31958;51.756;-2.556;2024-03-02T04:54:18;7.38;;;1.40;;
45476;SDS011;31958;51.756;-2.556;2024-03-02T04:56:43;2.22;;;1.25;;
45476;SDS011;31958;51.756;-2.556;2024-03-02T04:59:09;2.00;;;1.00;;
45476;SDS011;31958;51.756;-2.556;2024-03-02T05:01:35;6.03;;;1.38;;
45476;SDS011;31958;51.756;-2.556;2024-03-02T05:04:00;1.17;;;0.70;;
45476;SDS011;31958;51.756;-2.556;2024-03-02T05:06:26;2.13;;;0.80;;
45476;SDS011;31958;51.756;-2.556;2024-03-02T05:08:51;2.00;;;1.10;;
45476;SDS011;31958;51.756;-2.556;2024-03-02T05:11:16;1.42;;;0.63;;
45476;SDS011;31958;51.756;-2.556;2024-03-02T05:14:04;4.30;;;0.90;;
45476;SDS011;31958;51.756;-2.556;2024-03-02T05:16:36;1.40;;;0.70;;
45476;SDS011;31958;51.756;-2.556;2024-03-02T05:19:03;9.50;;;1.65;;
45476;SDS011;31958;51.756;-2.556;2024-03-02T05:21:31;1.88;;;0.75;;
45476;SDS011;31958;51.756;-2.556;2024-03-02T05:24:02;2.10;;;0.98;;
45476;SDS011;31958;51.756;-2.556;2024-03-02T05:26:27;3.00;;;0.75;;
45476;SDS011;31958;51.756;-2.556;2024-03-02T05:28:53;1.45;;;0.60;;
45476;SDS011;31958;51.756;-2.556;2024-03-02T05:31:18;5.47;;;0.70;;
45476;SDS011;31958;51.756;-2.556;2024-03-02T05:33:43;2.08;;;1.10;;
45476;SDS011;31958;51.756;-2.556;2024-03-02T05:36:09;1.38;;;0.90;;
45476;SDS011;31958;51.756;-2.556;2024-03-02T05:38:34;2.97;;;1.05;;
45476;SDS011;31958;51.756;-2.556;2024-03-02T05:41:00;1.48;;;0.80;;
45476;SDS011;31958;51.756;-2.556;2024-03-02T05:43:25;3.65;;;1.17;;
45476;SDS011;31958;51.756;-2.556;2024-03-02T05:45:51;1.35;;;0.77;;
45476;SDS011;31958;51.756;-2.556;2024-03-02T05:48:16;3.00;;;0.70;;
45476;SDS011;31958;51.756;-2.556;2024-03-02T05:50:41;1.95;;;0.75;;
45476;SDS011;31958;51.756;-2.556;2024-03-02T05:53:06;2.33;;;0.57;;
45476;SDS011;31958;51.756;-2.556;2024-03-02T05:55:32;0.80;;;0.60;;
45476;SDS011;31958;51.756;-2.556;2024-03-02T05:57:58;2.97;;;0.70;;
45476;SDS011;31958;51.756;-2.556;2024-03-02T06:00:23;0.68;;;0.43;;
45476;SDS011;31958;51.756;-2.556;2024-03-02T06:02:48;1.10;;;0.68;;
45476;SDS011;31958;51.756;-2.556;2024-03-02T06:05:14;1.02;;;0.52;;
45476;SDS011;31958;51.756;-2.556;2024-03-02T06:07:40;1.13;;;0.68;;
45476;SDS011;31958;51.756;-2.556;2024-03-02T06:10:06;0.75;;;0.47;;
45476;SDS011;31958;51.756;-2.556;2024-03-02T06:12:32;1.23;;;0.75;;
45476;SDS011;31958;51.756;-2.556;2024-03-02T06:14:57;1.40;;;0.57;;
45476;SDS011;31958;51.756;-2.556;2024-03-02T06:17:23;1.50;;;0.77;;
45476;SDS011;31958;51.756;-2.556;2024-03-02T06:19:48;0.65;;;0.47;;
45476;SDS011;31958;51.756;-2.556;2024-03-02T06:22:13;8.38;;;0.60;;
45476;SDS011;31958;51.756;-2.556;2024-03-02T06:24:39;1.58;;;0.47;;
45476;SDS011;31958;51.756;-2.556;2024-03-02T06:27:05;1.20;;;0.70;;
45476;SDS011;31958;51.756;-2.556;2024-03-02T06:29:32;0.50;;;0.50;;
45476;SDS011;31958;51.756;-2.556;2024-03-02T06:31:58;0.50;;;0.38;;
45476;SDS011;31958;51.756;-2.556;2024-03-02T06:34:23;0.73;;;0.50;;
45476;SDS011;31958;51.756;-2.556;2024-03-02T06:36:48;0.55;;;0.40;;
45476;SDS011;31958;51.756;-2.556;2024-03-02T06:39:14;0.43;;;0.40;;
45476;SDS011;31958;51.756;-2.556;2024-03-02T06:41:39;0.25;;;0.22;;
45476;SDS011;31958;51.756;-2.556;2024-03-02T06:44:05;0.60;;;0.30;;
45476;SDS011;31958;51.756;-2.556;2024-03-02T06:46:31;0.10;;;0.10;;
45476;SDS011;31958;51.756;-2.556;2024-03-02T06:48:57;0.77;;;0.40;;
45476;SDS011;31958;51.756;-2.556;2024-03-02T06:51:22;0.25;;;0.25;;
45476;SDS011;31958;51.756;-2.556;2024-03-02T06:53:48;0.40;;;0.40;;
45476;SDS011;31958;51.756;-2.556;2024-03-02T06:56:13;3.30;;;0.35;;
45476;SDS011;31958;51.756;-2.556;2024-03-02T06:58:38;0.52;;;0.40;;
45476;SDS011;31958;51.756;-2.556;2024-03-02T07:01:04;0.50;;;0.32;;
45476;SDS011;31958;51.756;-2.556;2024-03-02T07:03:30;0.32;;;0.30;;
45476;SDS011;31958;51.756;-2.556;2024-03-02T07:05:55;0.30;;;0.20;;
45476;SDS011;31958;51.756;-2.556;2024-03-02T07:08:20;1.08;;;0.28;;
45476;SDS011;31958;51.756;-2.556;2024-03-02T07:10:46;0.30;;;0.28;;
45476;SDS011;31958;51.756;-2.556;2024-03-02T07:13:12;1.33;;;0.60;;
45476;SDS011;31958;51.756;-2.556;2024-03-02T07:15:38;20.02;;;1.42;;
45476;SDS011;31958;51.756;-2.556;2024-03-02T07:18:32;5.95;;;0.50;;
45476;SDS011;31958;51.756;-2.556;2024-03-02T07:21:05;0.35;;;0.30;;
45476;SDS011;31958;51.756;-2.556;2024-03-02T07:23:32;0.40;;;0.30;;
45476;SDS011;31958;51.756;-2.556;2024-03-02T07:25:57;1.00;;;0.45;;
45476;SDS011;31958;51.756;-2.556;2024-03-02T07:28:24;4.35;;;0.45;;
45476;SDS011;31958;51.756;-2.556;2024-03-02T07:31:00;0.47;;;0.38;;
45476;SDS011;31958;51.756;-2.556;2024-03-02T07:33:26;0.35;;;0.20;;
45476;SDS011;31958;51.756;-2.556;2024-03-02T07:35:51;0.10;;;0.10;;
45476;SDS011;31958;51.756;-2.556;2024-03-02T07:38:17;0.20;;;0.20;;
45476;SDS011;31958;51.756;-2.556;2024-03-02T07:40:42;0.17;;;0.17;;
45476;SDS011;31958;51.756;-2.556;2024-03-02T07:43:08;0.10;;;0.10;;
45476;SDS011;31958;51.756;-2.556;2024-03-02T07:45:33;0.38;;;0.20;;
45476;SDS011;31958;51.756;-2.556;2024-03-02T07:48:01;0.20;;;0.20;;
45476;SDS011;31958;51.756;-2.556;2024-03-02T07:50:26;0.10;;;0.10;;
45476;SDS011;31958;51.756;-2.556;2024-03-02T07:52:52;0.25;;;0.22;;
45476;SDS011;31958;51.756;-2.556;2024-03-02T07:55:17;0.32;;;0.25;;
45476;SDS011;31958;51.756;-2.556;2024-03-02T07:57:43;0.32;;;0.30;;
45476;SDS011;31958;51.756;-2.556;2024-03-02T08:00:08;0.30;;;0.30;;
45476;SDS011;31958;51.756;-2.556;2024-03-02T08:02:34;0.25;;;0.25;;
45476;SDS011;31958;51.756;-2.556;2024-03-02T08:05:00;0.20;;;0.20;;
45476;SDS011;31958;51.756;-2.556;2024-03-02T08:07:26;0.68;;;0.40;;
45476;SDS011;31958;51.756;-2.556;2024-03-02T08:09:51;0.38;;;0.30;;
45476;SDS011;31958;51.756;-2.556;2024-03-02T08:12:17;0.20;;;0.20;;
45476;SDS011;31958;51.756;-2.556;2024-03-02T08:14:43;0.50;;;0.40;;
45476;SDS011;31958;51.756;-2.556;2024-03-02T08:17:08;0.20;;;0.20;;
45476;SDS011;31958;51.756;-2.556;2024-03-02T08:19:35;0.90;;;0.47;;
45476;SDS011;31958;51.756;-2.556;2024-03-02T08:22:01;0.60;;;0.40;;
45476;SDS011;31958;51.756;-2.556;2024-03-02T08:24:26;0.28;;;0.28;;
45476;SDS011;31958;51.756;-2.556;2024-03-02T08:26:52;0.30;;;0.30;;
45476;SDS011;31958;51.756;-2.556;2024-03-02T08:29:17;0.52;;;0.35;;
45476;SDS011;31958;51.756;-2.556;2024-03-02T08:31:43;0.90;;;0.60;;
45476;SDS011;31958;51.756;-2.556;2024-03-02T08:34:08;0.47;;;0.40;;
45476;SDS011;31958;51.756;-2.556;2024-03-02T08:36:34;1.13;;;0.70;;
45476;SDS011;31958;51.756;-2.556;2024-03-02T08:38:59;0.95;;;0.63;;
45476;SDS011;31958;51.756;-2.556;2024-03-02T08:41:24;5.82;;;0.88;;
45476;SDS011;31958;51.756;-2.556;2024-03-02T08:43:50;1.58;;;0.80;;
45476;SDS011;31958;51.756;-2.556;2024-03-02T08:46:15;0.57;;;0.45;;
45476;SDS011;31958;51.756;-2.556;2024-03-02T08:48:41;1.10;;;0.50;;
45476;SDS011;31958;51.756;-2.556;2024-03-02T08:51:06;0.80;;;0.50;;
45476;SDS011;31958;51.756;-2.556;2024-03-02T08:53:33;1.20;;;0.75;;
45476;SDS011;31958;51.756;-2.556;2024-03-02T08:55:58;1.08;;;0.60;;
45476;SDS011;31958;51.756;-2.556;2024-03-02T08:58:24;0.63;;;0.50;;
45476;SDS011;31958;51.756;-2.556;2024-03-02T09:00:49;0.85;;;0.55;;
45476;SDS011;31958;51.756;-2.556;2024-03-02T09:03:14;1.38;;;0.80;;
45476;SDS011;31958;51.756;-2.556;2024-03-02T09:05:41;1.23;;;0.70;;
45476;SDS011;31958;51.756;-2.556;2024-03-02T09:08:07;0.75;;;0.55;;
45476;SDS011;31958;51.756;-2.556;2024-03-02T09:10:33;1.30;;;0.80;;
45476;SDS011;31958;51.756;-2.556;2024-03-02T09:12:58;0.65;;;0.50;;
45476;SDS011;31958;51.756;-2.556;2024-03-02T09:15:24;1.20;;;0.70;;
45476;SDS011;31958;51.756;-2.556;2024-03-02T09:17:49;1.02;;;0.52;;
45476;SDS011;31958;51.756;-2.556;2024-03-02T09:20:15;1.55;;;1.00;;
45476;SDS011;31958;51.756;-2.556;2024-03-02T09:22:41;1.13;;;0.70;;
45476;SDS011;31958;51.756;-2.556;2024-03-02T09:25:07;1.05;;;0.68;;
45476;SDS011;31958;51.756;-2.556;2024-03-02T09:27:35;1.83;;;0.82;;
45476;SDS011;31958;51.756;-2.556;2024-03-02T09:30:01;2.15;;;1.00;;
45476;SDS011;31958;51.756;-2.556;2024-03-02T09:32:27;1.70;;;0.75;;
45476;SDS011;31958;51.756;-2.556;2024-03-02T09:34:52;1.25;;;0.75;;
45476;SDS011;31958;51.756;-2.556;2024-03-02T09:37:18;1.23;;;0.70;;
45476;SDS011;31958;51.756;-2.556;2024-03-02T09:39:43;2.30;;;1.30;;
45476;SDS011;31958;51.756;-2.556;2024-03-02T09:42:10;2.20;;;0.98;;
45476;SDS011;31958;51.756;-2.556;2024-03-02T09:44:35;2.58;;;1.50;;
45476;SDS011;31958;51.756;-2.556;2024-03-02T09:47:00;2.50;;;1.02;;
45476;SDS011;31958;51.756;-2.556;2024-03-02T09:49:26;2.63;;;1.23;;
45476;SDS011;31958;51.756;-2.556;2024-03-02T09:51:51;2.45;;;1.40;;
45476;SDS011;31958;51.756;-2.556;2024-03-02T09:54:17;1.88;;;1.00;;
45476;SDS011;31958;51.756;-2.556;2024-03-02T09:56:43;2.75;;;1.20;;
45476;SDS011;31958;51.756;-2.556;2024-03-02T09:59:09;3.17;;;1.42;;
45476;SDS011;31958;51.756;-2.556;2024-03-02T10:01:34;2.92;;;1.40;;
45476;SDS011;31958;51.756;-2.556;2024-03-02T10:03:59;2.63;;;1.30;;
45476;SDS011;31958;51.756;-2.556;2024-03-02T10:06:26;2.47;;;1.30;;
45476;SDS011;31958;51.756;-2.556;2024-03-02T10:08:52;2.00;;;1.23;;
45476;SDS011;31958;51.756;-2.556;2024-03-02T10:11:25;2.80;;;1.75;;
45476;SDS011;31958;51.756;-2.556;2024-03-02T10:14:13;2.25;;;1.38;;
45476;SDS011;31958;51.756;-2.556;2024-03-02T10:16:40;3.10;;;1.40;;
45476;SDS011;31958;51.756;-2.556;2024-03-02T10:19:22;3.22;;;1.20;;
45476;SDS011;31958;51.756;-2.556;2024-03-02T10:21:49;4.97;;;1.35;;
45476;SDS011;31958;51.756;-2.556;2024-03-02T10:24:16;2.08;;;1.27;;
45476;SDS011;31958;51.756;-2.556;2024-03-02T10:26:42;1.98;;;1.20;;
45476;SDS011;31958;51.756;-2.556;2024-03-02T10:29:10;2.75;;;1.60;;
45476;SDS011;31958;51.756;-2.556;2024-03-02T10:31:36;2.15;;;1.13;;
45476;SDS011;31958;51.756;-2.556;2024-03-02T10:34:03;1.95;;;1.13;;
45476;SDS011;31958;51.756;-2.556;2024-03-02T10:36:28;2.70;;;1.30;;
45476;SDS011;31958;51.756;-2.556;2024-03-02T10:38:56;3.00;;;1.70;;
45476;SDS011;31958;51.756;-2.556;2024-03-02T10:41:25;2.60;;;1.45;;
45476;SDS011;31958;51.756;-2.556;2024-03-02T10:43:52;2.40;;;1.50;;
45476;SDS011;31958;51.756;-2.556;2024-03-02T10:46:24;3.40;;;1.50;;
45476;SDS011;31958;51.756;-2.556;2024-03-02T10:48:53;3.28;;;1.67;;
45476;SDS011;31958;51.756;-2.556;2024-03-02T10:51:18;2.75;;;1.42;;
45476;SDS011;31958;51.756;-2.556;2024-03-02T10:53:43;2.60;;;1.52;;
45476;SDS011;31958;51.756;-2.556;2024-03-02T10:56:09;3.13;;;1.60;;
45476;SDS011;31958;51.756;-2.556;2024-03-02T10:58:34;2.13;;;1.13;;
45476;SDS011;31958;51.756;-2.556;2024-03-02T11:01:03;2.83;;;1.33;;
45476;SDS011;31958;51.756;-2.556;2024-03-02T11:03:29;3.72;;;1.60;;
45476;SDS011;31958;51.756;-2.556;2024-03-02T11:05:58;11.38;;;2.22;;
45476;SDS011;31958;51.756;-2.556;2024-03-02T11:08:24;5.20;;;2.15;;
45476;SDS011;31958;51.756;-2.556;2024-03-02T11:10:52;5.15;;;2.85;;
45476;SDS011;31958;51.756;-2.556;2024-03-02T11:13:24;5.35;;;3.03;;
45476;SDS011;31958;51.756;-2.556;2024-03-02T11:15:55;6.18;;;2.15;;
45476;SDS011;31958;51.756;-2.556;2024-03-02T11:18:26;4.88;;;2.05;;
45476;SDS011;31958;51.756;-2.556;2024-03-02T11:20:51;6.50;;;2.97;;
45476;SDS011;31958;51.756;-2.556;2024-03-02T11:23:17;4.88;;;2.50;;
45476;SDS011;31958;51.756;-2.556;2024-03-02T11:25:42;5.28;;;2.30;;
45476;SDS011;31958;51.756;-2.556;2024-03-02T11:28:08;5.25;;;2.65;;
45476;SDS011;31958;51.756;-2.556;2024-03-02T11:35:32;3.35;;;2.08;;
45476;SDS011;31958;51.756;-2.556;2024-03-02T11:37:58;6.43;;;1.23;;
45476;SDS011;31958;51.756;-2.556;2024-03-02T11:40:27;3.65;;;1.63;;
45476;SDS011;31958;51.756;-2.556;2024-03-02T11:42:53;3.67;;;1.75;;
45476;SDS011;31958;51.756;-2.556;2024-03-02T11:45:25;2.65;;;1.55;;
45476;SDS011;31958;51.756;-2.556;2024-03-02T11:47:51;2.63;;;1.50;;
45476;SDS011;31958;51.756;-2.556;2024-03-02T11:53:12;3.28;;;2.10;;
45476;SDS011;31958;51.756;-2.556;2024-03-02T11:55:39;3.53;;;2.15;;
45476;SDS011;31958;51.756;-2.556;2024-03-02T11:58:06;2.92;;;1.60;;
45476;SDS011;31958;51.756;-2.556;2024-03-02T12:00:35;4.15;;;1.50;;
45476;SDS011;31958;51.756;-2.556;2024-03-02T12:05:26;2.33;;;1.17;;
45476;SDS011;31958;51.756;-2.556;2024-03-02T12:07:59;3.47;;;1.58;;
45476;SDS011;31958;51.756;-2.556;2024-03-02T12:10:25;2.33;;;1.27;;
45476;SDS011;31958;51.756;-2.556;2024-03-02T12:15:24;2.33;;;1.10;;
45476;SDS011;31958;51.756;-2.556;2024-03-02T12:17:52;2.30;;;1.10;;
45476;SDS011;31958;51.756;-2.556;2024-03-02T12:20:22;2.13;;;1.08;;
45476;SDS011;31958;51.756;-2.556;2024-03-02T12:22:49;3.20;;;1.70;;
45476;SDS011;31958;51.756;-2.556;2024-03-02T12:25:17;4.07;;;1.60;;
45476;SDS011;31958;51.756;-2.556;2024-03-02T12:27:42;3.38;;;1.67;;
45476;SDS011;31958;51.756;-2.556;2024-03-02T12:30:08;3.47;;;1.50;;
45476;SDS011;31958;51.756;-2.556;2024-03-02T12:32:35;5.63;;;1.90;;
45476;SDS011;31958;51.756;-2.556;2024-03-02T12:35:03;3.80;;;1.63;;
45476;SDS011;31958;51.756;-2.556;2024-03-02T12:37:30;3.10;;;1.52;;
45476;SDS011;31958;51.756;-2.556;2024-03-02T12:39:55;2.92;;;1.45;;
45476;SDS011;31958;51.756;-2.556;2024-03-02T12:42:21;3.75;;;1.75;;
45476;SDS011;31958;51.756;-2.556;2024-03-02T12:44:46;3.78;;;1.50;;
45476;SDS011;31958;51.756;-2.556;2024-03-02T12:47:12;3.10;;;1.40;;
45476;SDS011;31958;51.756;-2.556;2024-03-02T12:49:39;3.75;;;2.13;;
45476;SDS011;31958;51.756;-2.556;2024-03-02T12:52:05;3.42;;;2.05;;
45476;SDS011;31958;51.756;-2.556;2024-03-02T12:54:30;3.20;;;1.75;;
45476;SDS011;31958;51.756;-2.556;2024-03-02T12:56:56;3.17;;;1.60;;
45476;SDS011;31958;51.756;-2.556;2024-03-02T12:59:23;2.70;;;1.38;;
45476;SDS011;31958;51.756;-2.556;2024-03-02T13:01:51;3.60;;;1.88;;
45476;SDS011;31958;51.756;-2.556;2024-03-02T13:04:21;3.58;;;1.75;;
45476;SDS011;31958;51.756;-2.556;2024-03-02T13:06:47;2.67;;;1.67;;
45476;SDS011;31958;51.756;-2.556;2024-03-02T13:09:12;2.75;;;1.58;;
45476;SDS011;31958;51.756;-2.556;2024-03-02T13:11:40;5.45;;;1.88;;
45476;SDS011;31958;51.756;-2.556;2024-03-02T13:14:05;3.83;;;1.73;;
45476;SDS011;31958;51.756;-2.556;2024-03-02T13:16:30;4.60;;;2.17;;
45476;SDS011;31958;51.756;-2.556;2024-03-02T13:18:56;3.05;;;1.60;;
45476;SDS011;31958;51.756;-2.556;2024-03-02T13:21:21;2.90;;;1.58;;
45476;SDS011;31958;51.756;-2.556;2024-03-02T13:23:46;2.03;;;1.15;;
45476;SDS011;31958;51.756;-2.556;2024-03-02T13:26:12;2.90;;;1.58;;
45476;SDS011;31958;51.756;-2.556;2024-03-02T13:28:38;2.97;;;1.50;;
45476;SDS011;31958;51.756;-2.556;2024-03-02T13:31:04;3.65;;;1.60;;
45476;SDS011;31958;51.756;-2.556;2024-03-02T13:33:29;2.45;;;1.45;;
45476;SDS011;31958;51.756;-2.556;2024-03-02T13:35:56;2.90;;;1.77;;
45476;SDS011;31958;51.756;-2.556;2024-03-02T13:38:21;3.40;;;1.98;;
45476;SDS011;31958;51.756;-2.556;2024-03-02T13:40:47;4.22;;;1.80;;
45476;SDS011;31958;51.756;-2.556;2024-03-02T13:43:16;2.80;;;1.55;;
45476;SDS011;31958;51.756;-2.556;2024-03-02T13:45:41;1.88;;;0.98;;
45476;SDS011;31958;51.756;-2.556;2024-03-02T13:48:07;3.03;;;1.50;;
45476;SDS011;31958;51.756;-2.556;2024-03-02T13:50:32;4.18;;;1.25;;
45476;SDS011;31958;51.756;-2.556;2024-03-02T13:52:58;4.90;;;1.60;;
45476;SDS011;31958;51.756;-2.556;2024-03-02T13:55:23;2.70;;;1.55;;
45476;SDS011;31958;51.756;-2.556;2024-03-02T13:57:48;2.20;;;1.33;;
45476;SDS011;31958;51.756;-2.556;2024-03-02T14:00:15;7.60;;;2.92;;
45476;SDS011;31958;51.756;-2.556;2024-03-02T14:02:42;4.05;;;2.28;;
45476;SDS011;31958;51.756;-2.556;2024-03-02T14:05:07;3.55;;;2.00;;
45476;SDS011;31958;51.756;-2.556;2024-03-02T14:07:37;5.38;;;2.50;;
45476;SDS011;31958;51.756;-2.556;2024-03-02T14:10:03;5.95;;;3.08;;
45476;SDS011;31958;51.756;-2.556;2024-03-02T14:12:28;5.47;;;3.20;;
45476;SDS011;31958;51.756;-2.556;2024-03-02T14:14:54;5.47;;;2.88;;
45476;SDS011;31958;51.756;-2.556;2024-03-02T14:17:23;4.85;;;2.28;;
45476;SDS011;31958;51.756;-2.556;2024-03-02T14:19:49;6.55;;;2.42;;
45476;SDS011;31958;51.756;-2.556;2024-03-02T14:22:14;4.95;;;2.97;;
45476;SDS011;31958;51.756;-2.556;2024-03-02T14:24:42;5.95;;;2.88;;
45476;SDS011;31958;51.756;-2.556;2024-03-02T14:27:08;6.63;;;2.72;;
45476;SDS011;31958;51.756;-2.556;2024-03-02T14:29:33;4.78;;;2.85;;
45476;SDS011;31958;51.756;-2.556;2024-03-02T14:32:01;5.55;;;2.88;;
45476;SDS011;31958;51.756;-2.556;2024-03-02T14:34:28;4.10;;;2.50;;
45476;SDS011;31958;51.756;-2.556;2024-03-02T14:36:53;4.80;;;2.75;;
45476;SDS011;31958;51.756;-2.556;2024-03-02T14:39:18;5.00;;;2.55;;
45476;SDS011;31958;51.756;-2.556;2024-03-02T14:41:44;3.88;;;2.08;;